Time;durP1;ratioP1;P1;durP2;ratioP2;P2;SDS_P1;SDS_P2;PMS_P1;PMS_P2;Temp;Humidity;BMP_temperature;BMP_pressure;BME280_temperature;BME280_humidity;BME280_pressure;Samples;Min_cycle;Max_cycle;Signal;HPM_P1;HPM_P2
2021/12/14 00:01:40;;;;;;;77.05;37.35;;;;;;;-1.55;94.62;101404.84;5065356;28;20450;-68
2021/12/14 00:04:17;;;;;;;77.32;38.92;;;;;;;-1.56;93.88;101413.63;5063298;28;20028;-68
2021/12/14 00:06:44;;;;;;;83.78;38.50;;;;;;;-1.56;93.78;101416.25;5061578;28;20032;-67
2021/12/14 00:09:21;;;;;;;81.55;39.63;;;;;;;-1.65;93.28;101406.78;5057591;28;20487;-68
2021/12/14 00:16:59;;;;;;;80.78;38.17;;;;;;;-1.68;92.89;101413.91;5060397;28;20017;-67
2021/12/14 00:19:27;;;;;;;84.65;38.20;;;;;;;-1.69;92.66;101414.78;5067113;28;20021;-67
2021/12/14 00:21:55;;;;;;;71.18;36.05;;;;;;;-1.71;92.98;101413.97;5061627;28;20106;-67
2021/12/14 00:24:26;;;;;;;77.72;37.42;;;;;;;-1.70;92.50;101418.31;5064562;28;20024;-67
2021/12/14 00:27:02;;;;;;;77.82;36.63;;;;;;;-1.72;93.07;101409.56;5063381;28;20052;-67
2021/12/14 00:29:33;;;;;;;76.60;35.97;;;;;;;-1.71;93.44;101416.59;5057414;28;20404;-67
2021/12/14 00:32:02;;;;;;;78.78;39.03;;;;;;;-1.75;93.38;101417.53;5061475;28;20028;-68
2021/12/14 00:34:38;;;;;;;81.63;37.95;;;;;;;-1.83;93.34;101409.81;5060171;28;20028;-67
2021/12/14 00:37:09;;;;;;;80.82;39.55;;;;;;;-1.80;93.19;101430.78;5057352;28;20033;-68
2021/12/14 00:39:35;;;;;;;78.43;37.97;;;;;;;-1.94;92.94;101409.16;5057988;28;20353;-67
2021/12/14 00:42:01;;;;;;;82.20;38.60;;;;;;;-1.88;92.93;101424.81;5069172;28;20052;-67
2021/12/14 00:44:27;;;;;;;84.47;38.38;;;;;;;-1.97;92.21;101417.09;5067444;28;20028;-68
2021/12/14 00:46:53;;;;;;;74.22;35.72;;;;;;;-1.84;91.89;101447.50;5064078;28;20031;-67
2021/12/14 00:49:19;;;;;;;79.93;36.90;;;;;;;-1.88;92.19;101442.31;5062640;28;20024;-67
2021/12/14 00:51:44;;;;;;;80.07;37.63;;;;;;;-1.91;92.75;101442.41;5055396;28;20040;-67
2021/12/14 00:54:14;;;;;;;82.97;38.13;;;;;;;-1.93;93.23;101445.06;5059499;28;20024;-67
2021/12/14 00:56:40;;;;;;;82.35;38.30;;;;;;;-1.95;92.79;101444.22;5056850;28;20052;-67
2021/12/14 00:59:08;;;;;;;78.82;39.00;;;;;;;-1.93;92.70;101455.59;5061656;28;20032;-67
2021/12/14 01:01:41;;;;;;;80.13;37.30;;;;;;;-2.05;92.06;101441.78;5064520;28;20029;-67
2021/12/14 01:04:13;;;;;;;83.65;38.97;;;;;;;-2.01;91.76;101446.09;5063799;28;20028;-66
2021/12/14 01:06:45;;;;;;;81.55;38.80;;;;;;;-2.05;91.66;101450.56;5066111;28;20483;-66
2021/12/14 01:09:14;;;;;;;83.45;41.10;;;;;;;-2.07;91.70;101452.31;5061546;28;20028;-67
2021/12/14 01:11:44;;;;;;;81.35;38.17;;;;;;;-2.13;91.45;101447.19;5057158;28;20076;-67
2021/12/14 01:14:23;;;;;;;85.57;40.13;;;;;;;-2.14;91.58;101455.97;5061628;28;20036;-66
2021/12/14 01:17:06;;;;;;;86.40;37.85;;;;;;;-2.14;90.97;101449.84;5062494;28;20435;-67
2021/12/14 01:19:33;;;;;;;87.25;40.80;;;;;;;-2.14;91.40;101452.47;5058260;28;20067;-67
2021/12/14 01:25:00;;;;;;;85.03;40.33;;;;;;;-2.20;91.23;101449.97;5065143;28;20513;-67
2021/12/14 01:27:25;;;;;;;80.30;39.28;;;;;;;-2.22;91.10;101446.50;5059310;28;20084;-67
2021/12/14 01:29:54;;;;;;;87.85;40.63;;;;;;;-2.25;91.09;101451.81;5056087;28;20091;-67
2021/12/14 01:32:23;;;;;;;85.10;39.22;;;;;;;-2.32;91.10;101441.41;5062401;28;20020;-67
2021/12/14 01:34:49;;;;;;;85.88;39.08;;;;;;;-2.33;91.35;101439.66;5064228;28;20052;-67
2021/12/14 01:37:21;;;;;;;82.93;38.90;;;;;;;-2.29;91.61;101452.75;5064324;28;20114;-67
2021/12/14 01:40:04;;;;;;;86.65;41.60;;;;;;;-2.26;92.08;101450.06;5061001;28;20036;-67
2021/12/14 01:42:34;;;;;;;80.50;39.53;;;;;;;-2.32;91.79;101438.78;5052271;28;20194;-67
2021/12/14 01:45:04;;;;;;;89.13;39.53;;;;;;;-2.23;91.89;101450.03;5052355;28;20071;-67
2021/12/14 01:47:38;;;;;;;80.15;39.85;;;;;;;-2.33;92.54;101434.41;5057559;28;20514;-67
2021/12/14 01:50:08;;;;;;;81.85;40.08;;;;;;;-2.29;92.10;101445.72;5050827;28;20115;-67
2021/12/14 01:52:35;;;;;;;82.45;38.85;;;;;;;-2.33;92.38;101443.19;5047846;28;20392;-67
2021/12/14 01:55:09;;;;;;;84.50;39.90;;;;;;;-2.30;92.05;101445.78;5047854;28;20063;-67
2021/12/14 01:57:35;;;;;;;82.18;37.92;;;;;;;-2.29;92.60;101448.34;5047715;28;20051;-67
2021/12/14 02:00:06;;;;;;;87.15;40.90;;;;;;;-2.32;93.18;101444.03;5050425;28;20439;-67
2021/12/14 02:02:42;;;;;;;90.22;40.92;;;;;;;-2.28;93.25;101453.56;5048581;28;20091;-67
2021/12/14 02:05:27;;;;;;;89.28;40.85;;;;;;;-2.34;93.37;101437.06;5047611;28;20468;-67
2021/12/14 02:07:55;;;;;;;82.43;39.15;;;;;;;-2.39;93.22;101431.03;5048814;28;20033;-67
2021/12/14 02:10:32;;;;;;;80.38;37.70;;;;;;;-2.32;93.24;101454.53;5055024;28;20116;-67
2021/12/14 02:12:58;;;;;;;83.80;37.47;;;;;;;-2.38;92.78;101440.66;5053097;28;20029;-67
2021/12/14 02:15:28;;;;;;;79.35;38.60;;;;;;;-2.59;92.34;101410.38;5053070;28;20051;-67
2021/12/14 02:17:57;;;;;;;81.30;37.53;;;;;;;-2.43;92.10;101435.47;5054433;28;20487;-67
2021/12/14 02:20:30;;;;;;;84.28;37.08;;;;;;;-2.47;92.35;101432.94;5049050;28;20049;-67
2021/12/14 02:22:58;;;;;;;81.25;38.22;;;;;;;-2.47;91.96;101439.06;5047502;28;20448;-67
2021/12/14 02:25:24;;;;;;;77.80;35.42;;;;;;;-2.50;91.76;101435.59;5049214;28;20117;-67
2021/12/14 02:27:52;;;;;;;74.15;34.55;;;;;;;-2.51;91.72;101433.88;5047790;28;20061;-67
2021/12/14 02:30:23;;;;;;;79.80;36.60;;;;;;;-2.57;91.57;101429.59;5047519;28;20033;-67
2021/12/14 02:32:49;;;;;;;79.82;36.63;;;;;;;-2.62;91.54;101410.44;5048698;28;20472;-67
2021/12/14 02:35:19;;;;;;;76.75;36.65;;;;;;;-2.54;92.04;101429.53;5047996;28;20035;-67
2021/12/14 02:37:51;;;;;;;76.10;35.28;;;;;;;-2.54;91.98;101432.16;5049726;28;20017;-68
2021/12/14 02:40:53;;;;;;;75.97;35.40;;;;;;;-2.51;92.07;101437.34;5051124;28;20021;-67
2021/12/14 02:43:16;;;;;;;75.38;35.95;;;;;;;-2.58;92.46;101427.84;5052116;28;20523;-67
2021/12/14 02:45:42;;;;;;;72.13;35.28;;;;;;;-2.58;92.19;101427.00;5052414;28;20037;-67
2021/12/14 02:48:09;;;;;;;71.07;34.47;;;;;;;-2.56;92.07;101446.22;5062227;28;20095;-67
2021/12/14 02:50:35;;;;;;;79.43;35.55;;;;;;;-2.61;91.78;101443.66;5072421;28;20040;-67
2021/12/14 02:53:01;;;;;;;70.55;36.35;;;;;;;-2.62;91.37;101447.19;5072288;28;20020;-67
2021/12/14 02:55:27;;;;;;;74.10;34.50;;;;;;;-2.66;91.92;101447.25;5071256;28;20063;-67
2021/12/14 02:57:57;;;;;;;68.55;33.55;;;;;;;-2.67;91.10;101443.75;5072281;28;20024;-67
2021/12/14 03:00:35;;;;;;;85.70;35.85;;;;;;;-2.66;91.44;101450.75;5070822;28;20033;-67
2021/12/14 03:03:03;;;;;;;75.10;35.35;;;;;;;-2.69;90.95;101449.94;5061684;28;20159;-67
2021/12/14 03:05:35;;;;;;;78.20;36.97;;;;;;;-2.72;90.94;101458.72;5052240;28;20082;-67
2021/12/14 03:08:08;;;;;;;85.78;39.10;;;;;;;-2.73;91.50;101454.38;5051987;28;20420;-67
2021/12/14 03:10:54;;;;;;;78.43;36.95;;;;;;;-2.77;91.01;101443.94;5051812;28;20064;-67
2021/12/14 03:13:24;;;;;;;79.57;38.45;;;;;;;-2.82;91.34;101438.75;5052122;28;20524;-67
2021/12/14 03:15:53;;;;;;;79.68;36.35;;;;;;;-2.80;90.80;101441.38;5053726;28;20029;-67
2021/12/14 03:18:24;;;;;;;83.15;38.13;;;;;;;-2.82;89.96;101441.38;5062048;28;20032;-67
2021/12/14 03:20:56;;;;;;;76.63;36.58;;;;;;;-2.89;89.96;101426.63;5060231;28;20448;-67
2021/12/14 03:23:27;;;;;;;86.65;38.50;;;;;;;-2.92;90.22;101426.69;5067997;28;20032;-67
2021/12/14 03:25:56;;;;;;;78.85;37.72;;;;;;;-2.88;90.11;101438.84;5055818;28;20052;-67
2021/12/14 03:28:25;;;;;;;73.85;36.22;;;;;;;-2.89;90.17;101431.88;5053275;28;20091;-67
2021/12/14 03:31:15;;;;;;;90.40;38.20;;;;;;;-2.89;90.23;101439.75;5070255;28;20020;-67
2021/12/14 03:33:51;;;;;;;84.03;37.97;;;;;;;-2.90;90.68;101439.78;5053435;28;20453;-67
2021/12/14 03:36:23;;;;;;;78.22;36.90;;;;;;;-2.90;90.31;101440.63;5070122;28;20032;-67
2021/12/14 03:39:10;;;;;;;78.22;37.33;;;;;;;-2.91;90.22;101444.16;5065082;28;20078;-67
2021/12/14 03:41:45;;;;;;;81.57;37.45;;;;;;;-2.92;90.54;101434.56;5065371;28;20052;-67
2021/12/14 03:44:16;;;;;;;79.00;36.03;;;;;;;-2.91;91.31;101444.16;5060523;28;20384;-67
2021/12/14 03:46:56;;;;;;;79.97;35.92;;;;;;;-2.89;91.28;101452.00;5052347;28;20648;-67
2021/12/14 03:49:28;;;;;;;81.88;36.33;;;;;;;-2.99;91.84;101435.53;5063800;28;20037;-67
2021/12/14 03:51:54;;;;;;;84.25;36.83;;;;;;;-2.95;91.24;101450.34;5054086;28;20082;-67
2021/12/14 03:54:20;;;;;;;85.18;37.30;;;;;;;-2.90;90.93;101460.78;5051356;28;20108;-67
2021/12/14 03:56:47;;;;;;;80.07;37.10;;;;;;;-2.92;90.81;101460.78;5051716;28;20036;-67
2021/12/14 03:59:12;;;;;;;81.65;37.65;;;;;;;-2.93;91.46;101464.28;5059211;28;20032;-67
2021/12/14 04:01:41;;;;;;;85.72;36.92;;;;;;;-2.93;91.21;101460.81;5051911;28;20400;-68
2021/12/14 04:04:33;;;;;;;85.70;35.78;;;;;;;-2.96;90.46;101466.09;5059849;28;20033;-67
2021/12/14 04:07:02;;;;;;;89.30;39.35;;;;;;;-2.99;90.59;101456.53;5065133;28;20422;-67
2021/12/14 04:09:30;;;;;;;82.40;37.63;;;;;;;-3.05;90.71;101454.00;5062282;28;20029;-67
2021/12/14 04:11:59;;;;;;;84.32;39.17;;;;;;;-3.00;90.19;101467.06;5057809;28;20025;-67
2021/12/14 04:14:30;;;;;;;82.57;38.30;;;;;;;-3.03;90.83;101470.56;5061529;28;20036;-67
2021/12/14 04:16:59;;;;;;;80.50;38.70;;;;;;;-3.05;90.43;101469.75;5057076;28;20470;-67
2021/12/14 04:19:29;;;;;;;87.97;38.17;;;;;;;-3.05;90.78;101477.59;5060901;28;20459;-67
2021/12/14 04:22:04;;;;;;;97.75;38.88;;;;;;;-3.05;90.71;101475.00;5061893;28;20034;-67
2021/12/14 04:24:33;;;;;;;87.28;39.28;;;;;;;-3.14;90.58;101461.09;5065808;28;20025;-67
2021/12/14 04:27:02;;;;;;;85.38;40.38;;;;;;;-3.10;90.14;101473.28;5053944;28;20128;-67
2021/12/14 04:29:28;;;;;;;85.50;37.75;;;;;;;-3.14;89.81;101472.47;5054177;28;20063;-68
2021/12/14 04:31:54;;;;;;;78.65;37.40;;;;;;;-3.22;89.27;101476.94;5055888;28;20060;-67
2021/12/14 04:34:20;;;;;;;85.63;38.22;;;;;;;-3.23;89.22;101472.59;5061198;28;20111;-67
2021/12/14 04:36:50;;;;;;;90.65;40.50;;;;;;;-3.15;89.06;101488.25;5055868;28;20108;-67
2021/12/14 04:53:06;;;;;;;82.63;38.03;;;;;;;-3.22;90.23;101482.19;5057113;28;20510;-67
2021/12/14 04:55:32;;;;;;;85.10;42.05;;;;;;;-3.27;90.31;101475.28;5053517;28;20057;-67
2021/12/14 04:57:57;;;;;;;90.75;39.53;;;;;;;-3.26;89.56;101475.25;5068953;28;20033;-67
2021/12/14 05:00:38;;;;;;;86.55;37.90;;;;;;;-3.29;89.71;101477.94;5057698;28;20471;-67
2021/12/14 05:03:13;;;;;;;82.65;38.25;;;;;;;-3.30;89.21;101491.94;5055806;28;20033;-67
2021/12/14 05:05:46;;;;;;;90.20;39.75;;;;;;;-3.32;89.90;101493.69;5057789;28;20029;-67
2021/12/14 05:10:55;;;;;;;96.60;37.83;;;;;;;-3.33;89.39;101489.34;5061290;28;20037;-67
2021/12/14 05:13:26;;;;;;;89.75;39.03;;;;;;;-3.32;89.03;101496.31;5053851;28;20059;-67
2021/12/14 05:15:51;;;;;;;83.63;38.38;;;;;;;-3.35;88.76;101498.97;5061393;28;20044;-67
2021/12/14 05:18:17;;;;;;;100.15;41.55;;;;;;;-3.38;89.08;101487.69;5059161;28;20028;-67
2021/12/14 05:20:45;;;;;;;87.28;39.80;;;;;;;-3.32;89.73;101490.22;5066236;28;20090;-67
2021/12/14 05:23:13;;;;;;;89.20;39.80;;;;;;;-3.32;89.73;101491.06;5054822;28;20024;-67
2021/12/14 05:25:39;;;;;;;85.28;39.53;;;;;;;-3.35;90.28;101483.25;5059156;28;20049;-68
2021/12/14 05:28:08;;;;;;;90.90;39.80;;;;;;;-3.37;90.20;101495.53;5068537;28;20055;-68
2021/12/14 05:30:40;;;;;;;85.53;39.53;;;;;;;-3.44;90.08;101478.16;5056144;28;20064;-68
2021/12/14 05:33:13;;;;;;;90.35;39.20;;;;;;;-3.43;90.11;101482.50;5064639;28;20040;-68
2021/12/14 05:35:40;;;;;;;81.10;39.00;;;;;;;-3.47;89.48;101487.78;5054006;28;20027;-68
2021/12/14 05:38:11;;;;;;;86.45;37.78;;;;;;;-3.45;89.28;101488.66;5066094;28;20406;-68
2021/12/14 05:40:55;;;;;;;88.93;38.65;;;;;;;-3.46;88.80;101487.78;5058659;28;20016;-68
2021/12/14 05:43:26;;;;;;;89.45;39.95;;;;;;;-3.49;87.59;101486.94;5067095;28;20020;-68
2021/12/14 05:45:57;;;;;;;88.63;40.35;;;;;;;-3.55;88.11;101482.63;5067921;28;20032;-68
2021/12/14 05:48:26;;;;;;;93.18;40.92;;;;;;;-3.47;88.35;101509.66;5060321;28;20059;-69
2021/12/14 05:50:56;;;;;;;89.50;40.72;;;;;;;-3.51;88.33;101502.69;5065285;28;20039;-68
2021/12/14 05:53:26;;;;;;;84.80;39.60;;;;;;;-3.52;88.84;101507.97;5055803;28;20087;-68
2021/12/14 05:55:52;;;;;;;85.10;40.53;;;;;;;-3.49;89.25;101511.41;5062791;28;20127;-68
2021/12/14 05:58:22;;;;;;;95.68;44.30;;;;;;;-3.50;88.69;101508.78;5062365;28;20395;-68
2021/12/14 06:00:53;;;;;;;80.72;38.42;;;;;;;-3.63;88.99;101481.00;5052094;28;20108;-68
2021/12/14 06:03:26;;;;;;;84.82;38.10;;;;;;;-3.50;89.32;101512.31;5056075;28;20037;-68
2021/12/14 06:05:53;;;;;;;91.82;39.17;;;;;;;-3.47;89.46;101506.13;5060852;28;20351;-68
2021/12/14 06:08:26;;;;;;;80.38;37.85;;;;;;;-3.52;90.37;101505.34;5067693;28;20040;-68
2021/12/14 06:10:53;;;;;;;88.63;39.90;;;;;;;-3.46;89.79;101511.38;5061668;28;20082;-68
2021/12/14 06:13:19;;;;;;;84.65;37.83;;;;;;;-3.45;90.09;101507.84;5060211;28;20072;-68
2021/12/14 06:15:46;;;;;;;88.28;41.53;;;;;;;-3.43;90.70;101511.34;5052566;28;20090;-68
2021/12/14 06:18:20;;;;;;;85.55;40.58;;;;;;;-3.44;90.62;101517.47;5057107;28;20090;-68
2021/12/14 06:20:46;;;;;;;93.28;41.05;;;;;;;-3.48;90.22;101507.88;5065315;28;20017;-67
2021/12/14 06:23:12;;;;;;;86.20;37.83;;;;;;;-3.43;90.57;101521.81;5058148;28;20475;-67
2021/12/14 06:25:39;;;;;;;86.25;39.13;;;;;;;-3.39;90.35;101515.66;5057139;28;20175;-68
2021/12/14 06:28:04;;;;;;;85.15;40.47;;;;;;;-3.39;90.64;101514.81;5060611;28;20045;-68
2021/12/14 06:30:34;;;;;;;89.93;43.10;;;;;;;-3.39;90.64;101512.19;5059282;28;20031;-68
2021/12/14 06:33:08;;;;;;;91.63;42.40;;;;;;;-3.38;90.36;101508.66;5064073;28;20424;-68
2021/12/14 06:35:40;;;;;;;93.05;41.83;;;;;;;-3.32;90.30;101516.47;5066111;28;20033;-67
2021/12/14 06:40:39;;;;;;;92.20;41.15;;;;;;;-3.27;91.07;101517.25;5053564;28;20539;-68
2021/12/14 06:43:09;;;;;;;86.13;39.40;;;;;;;-3.20;91.62;101525.03;5059115;28;20036;-68
2021/12/14 06:45:42;;;;;;;90.80;41.20;;;;;;;-3.19;92.01;101500.53;5070213;28;20433;-67
2021/12/14 06:48:21;;;;;;;98.63;40.35;;;;;;;-3.10;92.37;101518.78;5059544;28;20025;-68
2021/12/14 06:50:49;;;;;;;90.93;41.58;;;;;;;-3.09;92.93;101509.16;5060135;28;20032;-68
2021/12/14 06:53:18;;;;;;;89.13;42.38;;;;;;;-3.04;93.93;101515.19;5059987;28;20037;-68
2021/12/14 06:55:44;;;;;;;106.82;43.25;;;;;;;-3.03;94.37;101516.94;5056627;28;20025;-67
2021/12/14 06:58:17;;;;;;;91.07;41.33;;;;;;;-3.02;94.13;101508.16;5058514;28;20598;-68
2021/12/14 07:00:51;;;;;;;90.78;43.88;;;;;;;-2.86;95.05;101525.44;5058103;28;20100;-68
2021/12/14 07:03:16;;;;;;;;;;;;;;;-2.83;95.32;101530.66;5053967;28;20095;-68
2021/12/14 07:05:48;;;;;;;95.82;43.92;;;;;;;-2.74;95.95;101530.53;5058503;28;19921;-67
2021/12/14 07:08:23;;;;;;;96.03;43.30;;;;;;;-2.67;96.31;101516.41;5054987;28;20025;-67
2021/12/14 07:10:50;;;;;;;99.57;43.15;;;;;;;-2.63;96.18;101524.22;5054842;28;20021;-68
2021/12/14 07:13:24;;;;;;;101.45;46.83;;;;;;;-2.55;96.26;101522.34;5060358;28;20063;-68
2021/12/14 07:15:51;;;;;;;101.43;48.13;;;;;;;-2.48;96.84;101518.72;5051075;28;20052;-68
2021/12/14 07:18:17;;;;;;;101.40;46.58;;;;;;;-2.46;96.86;101510.81;5056294;28;20025;-68
2021/12/14 07:20:49;;;;;;;96.85;48.33;;;;;;;-2.32;97.45;101524.59;5058486;28;20029;-69
2021/12/14 07:23:28;;;;;;;109.90;49.35;;;;;;;-2.23;97.70;101513.06;5058449;28;20075;-68
2021/12/14 07:26:05;;;;;;;111.22;51.13;;;;;;;-2.12;98.44;101527.75;5066056;28;20070;-68
2021/12/14 07:28:45;;;;;;;129.30;55.67;;;;;;;-2.03;99.41;101532.88;5057864;28;20872;-67
2021/12/14 07:31:17;;;;;;;122.15;55.47;;;;;;;-1.91;99.91;101531.78;5059714;28;20029;-68
2021/12/14 07:33:52;;;;;;;113.90;52.75;;;;;;;-1.83;100.00;101528.13;5058207;28;20035;-68
2021/12/14 07:36:24;;;;;;;120.18;55.50;;;;;;;-1.71;100.00;101530.50;5059209;28;20033;-68
2021/12/14 07:38:53;;;;;;;112.32;52.60;;;;;;;-1.63;100.00;101533.88;5066329;28;20029;-67
2021/12/14 07:41:40;;;;;;;130.52;56.72;;;;;;;-1.54;100.00;101530.19;5056777;28;20029;-68
2021/12/14 07:44:17;;;;;;;138.32;64.35;;;;;;;-1.45;100.00;101525.59;5052213;28;20037;-68
2021/12/14 07:46:53;;;;;;;124.63;61.00;;;;;;;-1.33;100.00;101541.16;5058904;28;20021;-68
2021/12/14 07:49:21;;;;;;;123.25;60.72;;;;;;;-1.25;100.00;101535.75;5058125;28;20029;-68
2021/12/14 07:51:50;;;;;;;125.90;58.17;;;;;;;-1.17;100.00;101520.66;5063281;28;20487;-68
2021/12/14 07:54:21;;;;;;;130.27;61.75;;;;;;;-1.07;100.00;101527.44;5063377;28;20044;-68
2021/12/14 07:56:50;;;;;;;122.22;58.80;;;;;;;-0.99;100.00;101525.53;5069941;28;20124;-68
2021/12/14 07:59:21;;;;;;;114.57;57.13;;;;;;;-0.90;100.00;101533.25;5069968;28;20036;-68
2021/12/14 08:01:48;;;;;;;114.07;57.35;;;;;;;-0.79;100.00;101539.13;5058164;28;20048;-68
2021/12/14 08:04:14;;;;;;;112.63;56.67;;;;;;;-0.69;100.00;101531.00;5054616;28;20075;-68
2021/12/14 08:06:59;;;;;;;112.18;54.50;;;;;;;-0.59;100.00;101534.25;5062148;28;20673;-66
2021/12/14 08:09:52;;;;;;;108.00;55.58;;;;;;;-0.47;100.00;101526.09;5067031;28;20451;-66
2021/12/14 08:12:50;;;;;;;106.28;55.50;;;;;;;-0.35;100.00;101526.66;5053309;28;20365;-67
2021/12/14 08:15:39;;;;;;;131.68;60.45;;;;;;;-0.24;100.00;101532.53;5063830;28;20028;-67
2021/12/14 08:18:18;;;;;;;136.00;63.35;;;;;;;-0.09;100.00;101541.84;5050855;28;20052;-67
2021/12/14 08:20:52;;;;;;;133.93;65.32;;;;;;;0.02;100.00;101531.88;5058159;28;20107;-67
2021/12/14 08:23:28;;;;;;;112.00;53.33;;;;;;;0.14;100.00;101525.41;5053072;28;20036;-66
2021/12/14 08:26:16;;;;;;;147.57;70.90;;;;;;;0.20;100.00;101538.44;5060132;28;20045;-68
2021/12/14 08:29:16;;;;;;;150.45;71.72;;;;;;;0.18;99.92;101543.75;5058974;28;20127;-68
2021/12/14 08:32:12;;;;;;;133.88;65.45;;;;;;;0.17;99.88;101538.53;5057183;28;20126;-67
2021/12/14 08:34:42;;;;;;;140.23;65.63;;;;;;;0.22;100.00;101534.00;5056384;28;20047;-67
2021/12/14 08:37:13;;;;;;;131.70;64.43;;;;;;;0.25;100.00;101534.78;5057184;28;20494;-67
2021/12/14 08:40:07;;;;;;;132.07;63.53;;;;;;;0.33;100.00;101539.84;5064348;28;20020;-68
2021/12/14 08:42:45;;;;;;;126.78;62.97;;;;;;;0.39;100.00;101545.84;5057489;28;20033;-68
2021/12/14 08:45:28;;;;;;;121.90;60.33;;;;;;;0.38;100.00;101536.19;5059480;28;20025;-67
2021/12/14 08:48:02;;;;;;;119.07;60.05;;;;;;;0.50;100.00;101542.91;5064195;28;20684;-67
2021/12/14 08:50:28;;;;;;;;;;;;;;;0.52;100.00;101541.97;5062531;28;20040;-68
2021/12/14 08:52:55;;;;;;;119.38;59.13;;;;;;;0.53;100.00;101530.50;5069851;28;19919;-68
2021/12/14 08:55:24;;;;;;;123.43;60.70;;;;;;;0.63;100.00;101531.97;5057738;28;20044;-68
2021/12/14 08:57:49;;;;;;;121.78;61.65;;;;;;;0.69;100.00;101534.44;5057361;28;20028;-68
2021/12/14 09:00:36;;;;;;;113.13;59.88;;;;;;;0.78;100.00;101536.81;5066916;28;20071;-68
2021/12/14 09:03:04;;;;;;;122.40;61.88;;;;;;;0.85;100.00;101540.16;5055065;28;20036;-68
2021/12/14 09:05:35;;;;;;;107.03;57.25;;;;;;;0.92;100.00;101536.41;5058011;28;20108;-68
2021/12/14 09:08:03;;;;;;;101.80;54.17;;;;;;;0.99;100.00;101549.41;5058895;28;20021;-68
2021/12/14 09:10:33;;;;;;;93.88;51.60;;;;;;;1.02;99.83;101533.47;5059188;28;20523;-68
2021/12/14 09:13:03;;;;;;;91.35;48.80;;;;;;;1.18;99.31;101550.59;5068372;28;20549;-68
2021/12/14 09:15:40;;;;;;;85.70;47.83;;;;;;;1.22;98.09;101551.34;5064073;28;20052;-68
2021/12/14 09:18:07;;;;;;;91.53;52.10;;;;;;;1.23;97.39;101537.25;5066742;28;20515;-68
2021/12/14 09:20:38;;;;;;;102.90;54.75;;;;;;;1.32;96.31;101535.16;5066212;28;20020;-68
2021/12/14 09:23:12;;;;;;;98.85;53.85;;;;;;;1.31;95.54;101520.25;5058928;28;20495;-67
2021/12/14 09:25:37;;;;;;;91.45;52.67;;;;;;;1.28;95.50;101530.03;5053934;28;20112;-68
2021/12/14 09:28:04;;;;;;;84.18;47.58;;;;;;;1.20;96.07;101522.34;5061947;28;20124;-68
2021/12/14 09:30:34;;;;;;;84.55;45.85;;;;;;;1.21;96.43;101518.78;5060727;28;20036;-68
2021/12/14 09:33:01;;;;;;;77.72;41.85;;;;;;;1.16;96.42;101520.69;5061417;28;20028;-68
2021/12/14 09:35:30;;;;;;;70.72;39.75;;;;;;;1.22;96.71;101532.84;5063532;28;20060;-68
2021/12/14 09:37:58;;;;;;;72.20;40.63;;;;;;;1.15;96.08;101508.41;5054800;28;20427;-68
2021/12/14 09:40:31;;;;;;;75.70;40.92;;;;;;;1.13;96.22;101509.38;5058453;28;20029;-68
2021/12/14 09:42:57;;;;;;;66.67;38.63;;;;;;;1.17;97.07;101517.16;5061016;28;20031;-67
2021/12/14 09:45:33;;;;;;;68.93;40.20;;;;;;;1.16;97.28;101512.78;5063083;28;20276;-67
2021/12/14 09:47:59;;;;;;;67.95;40.33;;;;;;;1.12;97.93;101508.50;5058976;28;20097;-68
2021/12/14 09:50:30;;;;;;;74.10;40.88;;;;;;;1.09;98.42;101494.50;5056032;28;20037;-67
2021/12/14 09:53:04;;;;;;;74.82;40.85;;;;;;;1.15;98.54;101504.88;5055609;28;20038;-68
2021/12/14 09:55:33;;;;;;;73.85;38.95;;;;;;;1.20;99.23;101498.56;5059407;28;20055;-68
2021/12/14 09:58:05;;;;;;;75.93;40.50;;;;;;;1.23;99.27;101501.09;5062820;28;20059;-68
2021/12/14 10:00:37;;;;;;;70.15;39.25;;;;;;;1.19;99.67;101482.78;5061979;28;20024;-68
2021/12/14 10:03:04;;;;;;;75.82;39.45;;;;;;;1.26;99.60;101487.78;5063243;28;20450;-68
2021/12/14 10:05:47;;;;;;;71.30;40.35;;;;;;;1.25;99.99;101485.19;5061512;28;20476;-68
2021/12/14 10:08:20;;;;;;;71.38;38.60;;;;;;;1.35;100.00;101495.44;5065314;28;20036;-68
2021/12/14 10:11:02;;;;;;;67.85;38.17;;;;;;;1.42;99.54;101496.13;5053565;28;20414;-68
2021/12/14 10:13:29;;;;;;;75.57;40.60;;;;;;;1.47;99.11;101495.06;5057864;28;20025;-68
2021/12/14 10:15:56;;;;;;;63.88;38.88;;;;;;;1.50;99.55;101500.25;5060410;28;20081;-67
2021/12/14 10:18:44;;;;;;;74.70;38.60;;;;;;;1.55;99.45;101495.66;5050649;28;20036;-67
2021/12/14 10:21:23;;;;;;;82.88;43.00;;;;;;;1.57;99.27;101498.25;5064623;28;20497;-68
2021/12/14 10:23:50;;;;;;;75.25;40.10;;;;;;;1.60;100.00;101492.88;5058782;28;20119;-68
2021/12/14 10:26:18;;;;;;;71.90;39.28;;;;;;;1.64;99.93;101491.84;5062240;28;20049;-68
2021/12/14 10:28:46;;;;;;;71.10;38.58;;;;;;;1.73;99.61;101496.84;5064814;28;20123;-68
2021/12/14 10:31:19;;;;;;;75.68;40.55;;;;;;;1.75;99.74;101485.31;5055987;28;20805;-68
2021/12/14 10:33:45;;;;;;;75.75;41.88;;;;;;;1.75;99.86;101480.03;5065568;28;20024;-68
2021/12/14 10:36:27;;;;;;;74.05;41.22;;;;;;;1.82;99.77;101485.97;5055793;28;20500;-68
2021/12/14 10:39:23;;;;;;;71.93;39.72;;;;;;;1.81;100.00;101471.88;5058623;28;20094;-68
2021/12/14 10:45:02;;;;;;;68.38;38.22;;;;;;;1.96;100.00;101470.47;5046078;28;20028;-69
2021/12/14 10:47:30;;;;;;;64.53;37.08;;;;;;;2.08;100.00;101473.59;5048015;28;20051;-68
2021/12/14 10:49:59;;;;;;;67.45;37.72;;;;;;;2.13;99.91;101471.63;5064212;28;20037;-69
2021/12/14 10:52:28;;;;;;;68.70;37.15;;;;;;;2.26;99.61;101472.09;5063558;28;20072;-68
2021/12/14 10:55:08;;;;;;;72.20;38.47;;;;;;;2.30;99.44;101473.69;5049293;28;20116;-68
2021/12/14 10:57:35;;;;;;;70.00;38.90;;;;;;;2.50;98.04;101470.31;5056414;28;20032;-68
2021/12/14 11:00:12;;;;;;;67.05;37.75;;;;;;;2.62;96.87;101468.09;5060440;28;20171;-68
2021/12/14 11:02:41;;;;;;;68.32;37.22;;;;;;;2.65;96.78;101472.41;5068024;28;20021;-68
2021/12/14 11:05:15;;;;;;;70.43;36.90;;;;;;;2.58;97.44;101476.19;5062613;28;20082;-69
2021/12/14 11:07:45;;;;;;;67.70;36.70;;;;;;;2.59;97.17;101472.63;5058405;28;20025;-69
2021/12/14 11:10:24;;;;;;;69.00;38.80;;;;;;;2.52;96.92;101469.34;5062207;28;20124;-69
2021/12/14 11:13:09;;;;;;;66.80;37.13;;;;;;;2.68;96.35;101486.41;5065629;28;20028;-69
2021/12/14 11:15:41;;;;;;;68.70;37.40;;;;;;;2.88;94.83;101483.00;5058737;28;20044;-69
2021/12/14 11:18:17;;;;;;;68.32;37.22;;;;;;;2.84;94.68;101482.25;5060887;28;20040;-68
2021/12/14 11:20:48;;;;;;;64.82;36.17;;;;;;;2.85;94.55;101484.00;5066556;28;20107;-69
2021/12/14 11:23:16;;;;;;;70.13;38.15;;;;;;;2.88;94.42;101491.81;5061714;28;20130;-69
2021/12/14 11:26:02;;;;;;;69.75;38.40;;;;;;;2.94;93.93;101488.94;5061006;28;20064;-69
2021/12/14 11:28:32;;;;;;;62.88;34.67;;;;;;;2.95;93.78;101487.13;5063210;28;20089;-69
2021/12/14 11:31:26;;;;;;;61.40;35.55;;;;;;;2.94;94.20;101488.06;5065439;28;20430;-69
2021/12/14 11:33:59;;;;;;;69.22;34.60;;;;;;;2.99;93.24;101491.38;5055026;28;20024;-69
2021/12/14 11:36:37;;;;;;;61.10;36.25;;;;;;;3.02;92.65;101486.84;5059370;28;20515;-69
2021/12/14 11:39:05;;;;;;;66.22;37.63;;;;;;;3.10;92.21;101497.16;5059793;28;20041;-69
2021/12/14 11:41:34;;;;;;;66.63;38.25;;;;;;;3.07;92.31;101492.84;5058695;28;20376;-69
2021/12/14 11:44:05;;;;;;;65.93;37.13;;;;;;;3.17;91.36;101482.75;5064023;28;20104;-69
2021/12/14 11:46:33;;;;;;;65.03;36.95;;;;;;;3.10;91.40;101470.66;5065634;28;20876;-69
2021/12/14 11:49:04;;;;;;;63.97;36.90;;;;;;;3.11;91.65;101475.03;5061067;28;20107;-69
2021/12/14 11:51:31;;;;;;;69.72;38.45;;;;;;;3.06;91.59;101466.41;5063543;28;20029;-69
2021/12/14 11:53:58;;;;;;;68.00;39.75;;;;;;;3.07;91.46;101463.69;5063283;28;20391;-69
2021/12/14 11:56:27;;;;;;;68.63;38.22;;;;;;;3.05;91.71;101462.88;5067844;28;20437;-69
2021/12/14 11:59:00;;;;;;;69.15;36.80;;;;;;;3.06;91.01;101463.75;5071165;28;20067;-69
2021/12/14 12:01:35;;;;;;;65.07;37.50;;;;;;;3.09;91.04;101466.28;5058103;28;20102;-69